createdAt,value
2022-11-16T00:02:16.611Z,14.45
2022-11-16T00:04:43.433Z,14.46
2022-11-16T00:07:10.156Z,14.50
2022-11-16T00:09:36.844Z,14.58
2022-11-16T00:12:03.470Z,14.57
2022-11-16T00:14:30.360Z,14.52
2022-11-16T00:16:56.973Z,14.23
2022-11-16T00:19:23.646Z,14.32
2022-11-16T00:21:50.280Z,14.42
2022-11-16T00:24:16.937Z,14.30
2022-11-16T00:26:43.585Z,14.46
2022-11-16T00:29:10.217Z,14.41
2022-11-16T00:31:36.961Z,14.32
2022-11-16T00:34:03.611Z,14.23
2022-11-16T00:36:30.248Z,14.16
2022-11-16T00:38:56.900Z,13.62
2022-11-16T00:41:23.533Z,13.91
2022-11-16T00:43:50.190Z,13.97
2022-11-16T00:46:16.828Z,13.99
2022-11-16T00:48:43.491Z,14.08
2022-11-16T00:51:10.150Z,14.00
2022-11-16T00:53:36.797Z,13.96
2022-11-16T00:56:03.409Z,14.04
2022-11-16T00:58:30.138Z,14.07
2022-11-16T01:00:56.939Z,14.14
2022-11-16T01:03:23.575Z,14.15
2022-11-16T01:05:50.221Z,14.15
2022-11-16T01:08:16.869Z,14.07
2022-11-16T01:10:43.562Z,13.92
2022-11-16T01:13:10.212Z,13.96
2022-11-16T01:15:36.885Z,13.76
2022-11-16T01:18:03.543Z,13.93
2022-11-16T01:20:30.147Z,13.88
2022-11-16T01:22:56.938Z,13.95
2022-11-16T01:25:23.565Z,13.91
2022-11-16T01:27:50.227Z,13.90
2022-11-16T01:30:16.863Z,13.84
2022-11-16T01:32:43.480Z,13.73
2022-11-16T01:35:10.133Z,13.65
2022-11-16T01:37:36.763Z,13.65
2022-11-16T01:40:03.439Z,13.64
2022-11-16T01:42:30.141Z,13.55
2022-11-16T01:44:56.785Z,13.52
2022-11-16T01:47:23.445Z,13.43
2022-11-16T01:49:50.081Z,13.25
2022-11-16T01:52:17.040Z,13.20
2022-11-16T01:54:43.673Z,13.11
2022-11-16T01:57:10.352Z,13.08
2022-11-16T01:59:37.001Z,13.00
2022-11-16T02:02:03.614Z,12.84
2022-11-16T02:04:30.268Z,12.83
2022-11-16T02:06:56.915Z,12.89
2022-11-16T02:09:23.638Z,12.90
2022-11-16T02:11:50.255Z,12.72
2022-11-16T02:14:16.931Z,12.68
2022-11-16T02:16:43.775Z,12.65
2022-11-16T02:19:10.530Z,12.63
2022-11-16T02:21:37.156Z,12.61
2022-11-16T02:24:03.817Z,12.65
2022-11-16T02:26:30.434Z,12.69
2022-11-16T02:28:57.098Z,12.64
2022-11-16T02:31:23.713Z,12.62
2022-11-16T02:33:50.386Z,12.60
2022-11-16T02:36:17.028Z,12.56
2022-11-16T02:38:43.631Z,12.45
2022-11-16T02:41:10.302Z,12.48
2022-11-16T02:43:36.934Z,12.47
2022-11-16T02:46:03.819Z,12.49
2022-11-16T02:48:30.653Z,12.26
2022-11-16T02:50:57.520Z,12.28
2022-11-16T02:53:24.195Z,12.38
2022-11-16T02:55:50.846Z,12.52
2022-11-16T02:58:17.471Z,12.51
2022-11-16T03:00:44.218Z,12.64
2022-11-16T03:03:10.978Z,12.64
2022-11-16T03:05:37.791Z,12.63
2022-11-16T03:08:04.431Z,12.50
2022-11-16T03:10:31.040Z,12.58
2022-11-16T03:12:57.711Z,12.62
2022-11-16T03:15:24.366Z,12.69
2022-11-16T03:17:51.026Z,12.69
2022-11-16T03:20:17.686Z,12.74
2022-11-16T03:22:44.353Z,12.85
2022-11-16T03:25:10.979Z,12.94
2022-11-16T03:27:37.640Z,12.90
2022-11-16T03:30:04.323Z,12.86
2022-11-16T03:32:31.060Z,12.90
2022-11-16T03:34:57.715Z,13.00
2022-11-16T03:37:25.390Z,12.89
2022-11-16T03:39:52.020Z,12.60
2022-11-16T03:42:18.641Z,12.62
2022-11-16T03:44:45.484Z,12.73
2022-11-16T03:47:12.349Z,12.49
2022-11-16T03:49:41.235Z,12.41
2022-11-16T03:52:07.874Z,12.29
2022-11-16T03:54:41.837Z,12.34
2022-11-16T03:57:13.420Z,12.52
2022-11-16T03:59:40.047Z,12.46
2022-11-16T04:02:09.468Z,12.65
2022-11-16T04:04:36.547Z,12.75
2022-11-16T04:07:03.268Z,12.78
2022-11-16T04:09:30.164Z,12.89
2022-11-16T04:11:56.942Z,12.96
2022-11-16T04:14:23.727Z,13.04
2022-11-16T04:16:50.373Z,12.97
2022-11-16T04:19:17.109Z,12.99
2022-11-16T04:21:49.344Z,12.98
2022-11-16T04:24:16.967Z,12.94
2022-11-16T04:26:44.672Z,13.00
2022-11-16T04:29:13.823Z,12.95
2022-11-16T04:31:40.622Z,12.96
2022-11-16T04:34:07.429Z,12.95
2022-11-16T04:36:41.377Z,12.93
2022-11-16T04:39:09.152Z,12.86
2022-11-16T04:41:36.325Z,12.81
2022-11-16T04:44:07.095Z,12.83
2022-11-16T04:46:34.109Z,12.76
2022-11-16T04:49:03.863Z,12.80
2022-11-16T04:51:30.514Z,12.79
2022-11-16T04:53:57.265Z,12.83
2022-11-16T04:56:23.907Z,12.76
2022-11-16T04:58:51.596Z,12.54
2022-11-16T05:01:18.307Z,12.60
2022-11-16T05:03:45.067Z,12.55
2022-11-16T05:06:11.708Z,12.61
2022-11-16T05:08:38.660Z,12.69
2022-11-16T05:11:05.342Z,12.76
2022-11-16T05:13:31.971Z,12.81
2022-11-16T05:15:58.625Z,12.81
2022-11-16T05:18:25.289Z,12.82
2022-11-16T05:20:51.928Z,12.30
2022-11-16T05:23:18.582Z,12.06
2022-11-16T05:25:45.218Z,12.08
2022-11-16T05:28:11.909Z,12.08
2022-11-16T05:30:38.600Z,11.98
2022-11-16T05:33:05.665Z,12.28
2022-11-16T05:35:32.355Z,12.36
2022-11-16T05:37:58.967Z,12.09
2022-11-16T05:40:25.640Z,11.76
2022-11-16T05:42:52.262Z,12.06
2022-11-16T05:45:21.149Z,12.12
2022-11-16T05:47:48.023Z,12.23
2022-11-16T05:50:14.751Z,12.31
2022-11-16T05:52:41.423Z,12.54
2022-11-16T05:55:08.041Z,12.39
2022-11-16T05:57:34.727Z,12.26
2022-11-16T06:00:01.413Z,12.32
2022-11-16T06:02:28.038Z,12.50
2022-11-16T06:04:54.682Z,12.57
2022-11-16T06:07:21.365Z,12.48
2022-11-16T06:09:48.051Z,12.08
2022-11-16T06:12:14.681Z,12.07
2022-11-16T06:14:41.393Z,12.08
2022-11-16T06:17:08.014Z,12.02
2022-11-16T06:19:34.700Z,12.07
2022-11-16T06:22:01.353Z,12.26
2022-11-16T06:24:27.997Z,11.91
2022-11-16T06:26:54.678Z,12.13
2022-11-16T06:29:21.324Z,12.24
2022-11-16T06:31:47.971Z,12.23
2022-11-16T06:34:14.575Z,12.22
2022-11-16T06:36:41.221Z,12.29
2022-11-16T06:39:08.758Z,12.41
2022-11-16T06:41:40.202Z,12.56
2022-11-16T06:44:07.957Z,12.66
2022-11-16T06:46:34.673Z,12.59
2022-11-16T06:49:01.338Z,12.41
2022-11-16T06:51:27.992Z,12.33
2022-11-16T06:53:54.632Z,12.25
2022-11-16T06:56:21.289Z,12.50
2022-11-16T06:58:52.908Z,12.40
2022-11-16T07:01:20.324Z,12.39
2022-11-16T07:03:46.988Z,12.35
2022-11-16T07:06:13.616Z,12.54
2022-11-16T07:08:40.294Z,12.67
2022-11-16T07:11:07.000Z,12.73
2022-11-16T07:13:33.654Z,12.75
2022-11-16T07:16:00.284Z,12.74
2022-11-16T07:18:26.970Z,12.77
2022-11-16T07:20:53.652Z,12.81
2022-11-16T07:23:20.307Z,12.93
2022-11-16T07:25:47.010Z,12.92
2022-11-16T07:28:13.673Z,12.92
2022-11-16T07:30:40.292Z,12.81
2022-11-16T07:33:06.944Z,12.76
2022-11-16T07:35:33.581Z,12.81
2022-11-16T07:38:00.229Z,12.60
2022-11-16T07:40:26.847Z,12.68
2022-11-16T07:42:53.483Z,12.83
2022-11-16T07:45:20.134Z,12.98
2022-11-16T07:47:46.798Z,13.05
2022-11-16T07:50:13.415Z,13.01
2022-11-16T07:52:40.029Z,13.04
2022-11-16T07:55:06.757Z,12.97
2022-11-16T07:57:33.383Z,12.75
2022-11-16T08:00:00.052Z,12.94
2022-11-16T08:02:26.696Z,12.93
2022-11-16T08:04:53.344Z,13.10
2022-11-16T08:07:20.133Z,13.26
2022-11-16T08:09:46.872Z,13.19
2022-11-16T08:12:13.513Z,13.34
2022-11-16T08:14:40.173Z,13.35
2022-11-16T08:17:06.833Z,13.48
2022-11-16T08:19:33.508Z,13.31
2022-11-16T08:22:00.156Z,13.42
2022-11-16T08:24:26.791Z,13.50
2022-11-16T08:26:53.433Z,13.31
2022-11-16T08:29:20.077Z,13.30
2022-11-16T08:31:46.763Z,13.29
2022-11-16T08:34:13.419Z,13.31
2022-11-16T08:36:40.054Z,13.38
2022-11-16T08:39:06.742Z,13.58
2022-11-16T08:41:33.402Z,13.66
2022-11-16T08:44:00.028Z,13.64
2022-11-16T08:46:26.687Z,13.62
2022-11-16T08:48:53.333Z,13.47
2022-11-16T08:51:20.621Z,13.20
2022-11-16T08:53:47.720Z,13.44
2022-11-16T08:56:14.363Z,13.49
2022-11-16T08:58:40.995Z,13.57
2022-11-16T09:01:07.629Z,13.57
2022-11-16T09:03:34.327Z,13.66
2022-11-16T09:06:00.970Z,13.70
2022-11-16T09:08:27.644Z,13.45
2022-11-16T09:10:54.302Z,13.49
2022-11-16T09:13:20.950Z,13.32
2022-11-16T09:15:47.592Z,13.34
2022-11-16T09:18:14.256Z,13.51
2022-11-16T09:20:40.896Z,13.57
2022-11-16T09:23:07.595Z,13.62
2022-11-16T09:25:34.259Z,13.77
2022-11-16T09:28:00.909Z,13.85
2022-11-16T09:30:27.550Z,13.68
2022-11-16T09:32:54.305Z,13.80
2022-11-16T09:35:20.952Z,13.99
2022-11-16T09:37:47.598Z,13.96
2022-11-16T09:40:14.303Z,13.51
2022-11-16T09:42:41.016Z,13.65
2022-11-16T09:45:07.671Z,13.87
2022-11-16T09:47:34.631Z,14.06
2022-11-16T09:50:03.932Z,14.13
2022-11-16T09:52:30.993Z,13.82
2022-11-16T09:54:57.671Z,13.75
2022-11-16T09:57:24.313Z,13.76
2022-11-16T09:59:50.958Z,13.82
2022-11-16T10:02:17.629Z,13.65
2022-11-16T10:04:44.281Z,13.82
2022-11-16T10:07:11.402Z,13.84
2022-11-16T10:09:38.071Z,14.15
2022-11-16T10:12:04.702Z,13.86
2022-11-16T10:14:31.348Z,14.02
2022-11-16T10:16:57.982Z,14.36
2022-11-16T10:19:24.624Z,14.64
2022-11-16T10:21:51.272Z,14.26
2022-11-16T10:24:17.925Z,14.08
2022-11-16T10:26:44.632Z,13.34
2022-11-16T10:29:11.268Z,13.16
2022-11-16T10:31:37.898Z,13.41
2022-11-16T10:34:04.581Z,13.97
2022-11-16T10:36:31.255Z,14.62
2022-11-16T10:38:57.887Z,14.62
2022-11-16T10:41:24.544Z,14.65
2022-11-16T10:43:53.576Z,15.03
2022-11-16T10:46:20.217Z,15.13
2022-11-16T10:48:46.877Z,14.54
2022-11-16T10:51:13.508Z,14.32
2022-11-16T10:53:40.149Z,14.30
2022-11-16T10:56:06.757Z,14.29
2022-11-16T10:58:33.393Z,14.70
2022-11-16T11:01:00.113Z,14.59
2022-11-16T11:03:26.834Z,14.23
2022-11-16T11:05:53.527Z,14.42
2022-11-16T11:08:20.239Z,14.61
2022-11-16T11:10:46.868Z,14.38
2022-11-16T11:13:13.503Z,14.25
2022-11-16T11:15:40.203Z,14.11
2022-11-16T11:18:06.848Z,14.29
2022-11-16T11:20:33.569Z,14.46
2022-11-16T11:23:00.203Z,14.57
2022-11-16T11:25:26.902Z,14.73
2022-11-16T11:27:53.532Z,14.98
2022-11-16T11:30:20.217Z,15.08
2022-11-16T11:32:46.853Z,14.79
2022-11-16T11:35:13.500Z,14.86
2022-11-16T11:37:40.150Z,14.84
2022-11-16T11:40:06.798Z,14.90
2022-11-16T11:42:33.491Z,14.61
2022-11-16T11:45:00.121Z,13.84
2022-11-16T11:47:56.324Z,13.44
2022-11-16T11:50:13.385Z,13.78
2022-11-16T11:52:40.032Z,13.95
2022-11-16T11:55:06.719Z,14.01
2022-11-16T11:57:33.373Z,14.12
2022-11-16T12:00:00.142Z,14.02
2022-11-16T12:02:26.819Z,13.82
2022-11-16T12:04:53.485Z,14.30
2022-11-16T12:07:20.196Z,14.02
2022-11-16T12:09:46.962Z,14.58
2022-11-16T12:12:15.018Z,14.21
2022-11-16T12:14:41.762Z,14.37
2022-11-16T12:17:08.417Z,14.26
2022-11-16T12:19:35.104Z,14.54
2022-11-16T12:22:01.747Z,14.22
2022-11-16T12:24:28.387Z,14.52
2022-11-16T12:26:55.029Z,14.74
2022-11-16T12:29:21.668Z,14.88
2022-11-16T12:31:48.330Z,15.27
2022-11-16T12:34:14.991Z,14.65
2022-11-16T12:36:41.651Z,14.38
2022-11-16T12:39:08.352Z,14.16
2022-11-16T12:41:35.110Z,14.10
2022-11-16T12:44:01.764Z,13.93
2022-11-16T12:46:28.449Z,14.15
2022-11-16T12:48:55.080Z,14.94
2022-11-16T12:51:21.734Z,15.32
2022-11-16T12:53:48.425Z,15.51
2022-11-16T12:56:15.073Z,15.53
2022-11-16T12:58:41.979Z,15.62
2022-11-16T13:01:08.715Z,15.81
2022-11-16T13:03:36.656Z,15.93
2022-11-16T13:06:03.633Z,15.95
2022-11-16T13:08:30.278Z,15.86
2022-11-16T13:10:56.925Z,15.47
2022-11-16T13:13:38.831Z,15.46
2022-11-16T13:16:05.481Z,15.14
2022-11-16T13:18:32.153Z,15.48
2022-11-16T13:20:58.815Z,15.78
2022-11-16T13:23:25.452Z,16.04
2022-11-16T13:25:52.120Z,16.16
2022-11-16T13:28:18.734Z,16.37
2022-11-16T13:30:45.352Z,16.41
2022-11-16T13:33:12.061Z,16.42
2022-11-16T13:35:38.708Z,16.51
2022-11-16T13:38:05.429Z,16.32
2022-11-16T13:40:32.222Z,15.55
2022-11-16T13:42:58.905Z,15.52
2022-11-16T13:45:25.714Z,15.30
2022-11-16T13:47:52.506Z,14.70
2022-11-16T13:50:19.256Z,14.74
2022-11-16T13:55:32.944Z,14.32
2022-11-16T13:57:59.829Z,14.21
2022-11-16T14:00:26.498Z,14.37
2022-11-16T14:02:55.869Z,14.46
2022-11-16T14:05:26.587Z,14.26
2022-11-16T14:07:53.289Z,14.56
2022-11-16T14:10:19.917Z,14.51
2022-11-16T14:12:46.580Z,14.45
2022-11-16T14:15:13.241Z,14.29
2022-11-16T14:17:39.883Z,14.63
2022-11-16T14:20:06.536Z,14.68
2022-11-16T14:22:33.180Z,14.81
2022-11-16T14:27:43.867Z,14.60
2022-11-16T14:30:10.621Z,14.44
2022-11-16T14:32:42.554Z,14.17
2022-11-16T14:35:09.431Z,14.21
2022-11-16T14:37:36.134Z,14.19
2022-11-16T14:40:03.052Z,14.58
2022-11-16T14:42:29.864Z,14.60
2022-11-16T14:45:01.129Z,14.43
2022-11-16T14:47:27.836Z,14.18
2022-11-16T14:49:54.457Z,14.32
2022-11-16T14:52:21.263Z,14.41
2022-11-16T14:54:47.913Z,14.69
2022-11-16T14:57:14.602Z,14.37
2022-11-16T14:59:41.290Z,14.22
2022-11-16T15:02:07.995Z,13.81
2022-11-16T15:04:34.661Z,13.75
2022-11-16T15:07:01.342Z,13.61
2022-11-16T15:09:28.019Z,13.78
2022-11-16T15:11:54.669Z,14.08
2022-11-16T15:14:21.310Z,14.22
2022-11-16T15:16:47.948Z,14.12
2022-11-16T15:19:14.593Z,14.35
2022-11-16T15:21:41.306Z,14.49
2022-11-16T15:24:29.290Z,14.41
2022-11-16T15:26:54.814Z,14.56
2022-11-16T15:29:21.714Z,14.68
2022-11-16T15:31:48.330Z,14.71
2022-11-16T15:34:14.976Z,14.77
2022-11-16T15:36:41.833Z,14.85
2022-11-16T15:39:08.482Z,14.84
2022-11-16T15:41:35.131Z,14.83
2022-11-16T15:44:14.138Z,14.82
2022-11-16T15:46:42.115Z,14.80
2022-11-16T15:49:08.741Z,14.75
2022-11-16T15:51:35.564Z,14.43
2022-11-16T15:54:02.197Z,14.42
2022-11-16T15:56:28.846Z,14.47
2022-11-16T15:58:55.485Z,14.49
2022-11-16T16:01:22.220Z,14.50
2022-11-16T16:03:48.985Z,14.50
2022-11-16T16:06:15.642Z,14.52
2022-11-16T16:08:42.434Z,14.53
2022-11-16T16:11:09.435Z,14.57
2022-11-16T16:13:36.296Z,14.38
2022-11-16T16:16:03.057Z,14.50
2022-11-16T16:18:29.699Z,14.67
2022-11-16T16:20:56.370Z,14.76
2022-11-16T16:23:23.118Z,14.78
2022-11-16T16:25:50.719Z,14.81
2022-11-16T16:28:17.507Z,14.79
2022-11-16T16:30:44.373Z,14.76
2022-11-16T16:33:12.016Z,14.84
2022-11-16T16:35:38.712Z,14.62
2022-11-16T16:38:05.380Z,14.59
2022-11-16T16:40:32.052Z,14.63
2022-11-16T16:42:58.929Z,14.50
2022-11-16T16:45:25.586Z,14.41
2022-11-16T16:47:52.227Z,14.36
2022-11-16T16:50:18.880Z,14.43
2022-11-16T16:52:45.578Z,14.55
2022-11-16T16:55:12.244Z,14.59
2022-11-16T16:57:38.926Z,14.60
2022-11-16T17:00:05.553Z,14.57
2022-11-16T17:02:32.279Z,14.50
2022-11-16T17:04:58.931Z,14.45
2022-11-16T17:07:25.855Z,14.44
2022-11-16T17:09:52.720Z,14.45
2022-11-16T17:12:19.471Z,14.48
2022-11-16T17:14:46.090Z,14.30
2022-11-16T17:17:12.734Z,14.40
2022-11-16T17:19:39.374Z,14.42
2022-11-16T17:22:06.017Z,14.43
2022-11-16T17:24:32.684Z,14.39
2022-11-16T17:26:59.311Z,14.33
2022-11-16T17:29:28.746Z,14.35
2022-11-16T17:31:55.489Z,14.20
2022-11-16T17:34:22.593Z,14.21
2022-11-16T17:36:49.280Z,14.25
2022-11-16T17:39:15.946Z,14.31
2022-11-16T17:41:42.622Z,14.26
2022-11-16T17:44:09.296Z,14.26
2022-11-16T17:46:35.935Z,14.30
2022-11-16T17:49:02.596Z,14.07
2022-11-16T17:51:29.239Z,14.16
2022-11-16T17:53:55.864Z,14.21
2022-11-16T17:56:22.527Z,14.18
2022-11-16T17:58:49.158Z,14.18
2022-11-16T18:01:15.879Z,14.02
2022-11-16T18:03:42.541Z,14.04
2022-11-16T18:06:09.229Z,14.05
2022-11-16T18:08:35.856Z,14.13
2022-11-16T18:11:02.480Z,14.19
2022-11-16T18:13:29.201Z,14.23
2022-11-16T18:15:55.905Z,14.24
2022-11-16T18:18:22.582Z,14.15
2022-11-16T18:20:49.217Z,14.02
2022-11-16T18:23:15.897Z,14.06
2022-11-16T18:25:42.541Z,14.14
2022-11-16T18:28:09.215Z,14.11
2022-11-16T18:30:35.888Z,14.08
2022-11-16T18:33:02.608Z,14.05
2022-11-16T18:35:29.285Z,13.86
2022-11-16T18:37:55.973Z,13.91
2022-11-16T18:40:22.614Z,13.85
2022-11-16T18:42:49.253Z,13.89
2022-11-16T18:45:15.923Z,13.82
2022-11-16T18:47:42.697Z,13.91
2022-11-16T18:50:14.491Z,13.72
2022-11-16T18:52:44.839Z,13.60
2022-11-16T18:55:11.553Z,13.80
2022-11-16T18:57:38.260Z,13.93
2022-11-16T19:00:04.995Z,13.96
2022-11-16T19:02:31.713Z,13.92
2022-11-16T19:04:58.359Z,13.74
2022-11-16T19:07:25.010Z,13.71
2022-11-16T19:09:51.744Z,13.78
2022-11-16T19:12:18.635Z,13.51
2022-11-16T19:14:45.326Z,13.62
2022-11-16T19:17:12.022Z,13.72
2022-11-16T19:19:38.712Z,13.81
2022-11-16T19:22:05.332Z,13.92
2022-11-16T19:24:32.010Z,13.96
2022-11-16T19:27:00.169Z,13.98
2022-11-16T19:29:26.828Z,14.01
2022-11-16T19:31:53.491Z,14.01
2022-11-16T19:34:20.208Z,13.99
2022-11-16T19:36:46.863Z,13.96
2022-11-16T19:39:13.603Z,13.98
2022-11-16T19:41:40.249Z,13.96
2022-11-16T19:44:06.941Z,13.87
2022-11-16T19:46:33.625Z,13.77
2022-11-16T19:49:00.284Z,13.63
2022-11-16T19:51:26.956Z,13.60
2022-11-16T19:53:53.650Z,13.73
2022-11-16T19:56:20.339Z,13.76
2022-11-16T19:58:47.227Z,13.78
2022-11-16T20:01:13.998Z,13.76
2022-11-16T20:03:40.939Z,13.76
2022-11-16T20:06:07.570Z,13.76
2022-11-16T20:08:34.316Z,13.72
2022-11-16T20:11:00.992Z,13.67
2022-11-16T20:13:27.653Z,13.69
2022-11-16T20:15:54.329Z,13.72
2022-11-16T20:18:20.992Z,13.50
2022-11-16T20:20:47.756Z,13.44
2022-11-16T20:23:14.410Z,13.43
2022-11-16T20:25:41.032Z,13.31
2022-11-16T20:28:07.679Z,13.43
2022-11-16T20:30:34.324Z,13.49
2022-11-16T20:33:01.009Z,13.53
2022-11-16T20:35:27.659Z,13.42
2022-11-16T20:37:54.326Z,13.46
2022-11-16T20:40:20.964Z,13.50
2022-11-16T20:42:47.689Z,13.44
2022-11-16T20:45:14.337Z,13.50
2022-11-16T20:47:40.985Z,13.31
2022-11-16T20:50:07.723Z,13.24
2022-11-16T20:52:38.291Z,13.33
2022-11-16T20:55:09.021Z,13.41
2022-11-16T20:57:35.679Z,13.24
2022-11-16T21:00:02.311Z,13.32
2022-11-16T21:02:29.018Z,13.29
2022-11-16T21:05:00.073Z,13.29
2022-11-16T21:07:27.248Z,13.16
2022-11-16T21:09:53.978Z,13.01
2022-11-16T21:12:20.618Z,13.01
2022-11-16T21:14:47.279Z,12.98
2022-11-16T21:17:13.984Z,12.94
2022-11-16T21:19:49.882Z,12.97
2022-11-16T21:22:31.046Z,13.09
2022-11-16T21:24:58.882Z,13.08
2022-11-16T21:30:09.622Z,12.86
2022-11-16T21:32:36.335Z,12.83
2022-11-16T21:35:02.957Z,12.83
2022-11-16T21:37:29.632Z,12.81
2022-11-16T21:39:56.278Z,12.68
2022-11-16T21:42:22.946Z,12.61
2022-11-16T21:44:49.614Z,12.65
2022-11-16T21:47:17.120Z,12.69
2022-11-16T21:50:08.591Z,12.64
2022-11-16T21:52:32.883Z,12.58
2022-11-16T21:54:59.567Z,12.61
2022-11-16T21:57:26.189Z,12.58
2022-11-16T21:59:52.833Z,12.34
2022-11-16T22:02:19.472Z,12.53
2022-11-16T22:04:46.180Z,12.45
2022-11-16T22:07:12.860Z,12.47
2022-11-16T22:09:39.505Z,12.51
2022-11-16T22:12:06.175Z,12.62
2022-11-16T22:14:32.874Z,12.58
2022-11-16T22:16:59.500Z,12.53
2022-11-16T22:19:26.244Z,12.46
2022-11-16T22:21:52.925Z,12.50
2022-11-16T22:24:19.758Z,12.48
2022-11-16T22:26:46.377Z,12.50
2022-11-16T22:29:13.132Z,12.56
2022-11-16T22:31:39.771Z,12.52
2022-11-16T22:34:06.458Z,12.56
2022-11-16T22:36:33.126Z,12.67
2022-11-16T22:38:59.777Z,12.68
2022-11-16T22:41:26.445Z,12.54
2022-11-16T22:43:53.087Z,12.28
2022-11-16T22:46:19.768Z,12.39
2022-11-16T22:48:46.407Z,12.50
2022-11-16T22:51:13.112Z,12.43
2022-11-16T22:53:39.826Z,12.45
2022-11-16T22:56:06.509Z,12.28
2022-11-16T22:58:33.140Z,12.37
2022-11-16T23:00:59.744Z,12.44
2022-11-16T23:03:26.424Z,12.33
2022-11-16T23:05:53.096Z,12.35
2022-11-16T23:08:19.740Z,12.14
2022-11-16T23:10:49.233Z,12.28
2022-11-16T23:13:16.006Z,12.28
2022-11-16T23:15:42.627Z,12.21
2022-11-16T23:18:09.286Z,12.22
2022-11-16T23:20:35.959Z,12.32
2022-11-16T23:23:02.573Z,12.18
2022-11-16T23:25:29.214Z,12.16
2022-11-16T23:27:55.865Z,12.17
2022-11-16T23:30:22.520Z,12.24
2022-11-16T23:32:49.358Z,12.30
2022-11-16T23:35:15.991Z,12.40
2022-11-16T23:37:42.634Z,12.38
2022-11-16T23:40:09.259Z,12.35
2022-11-16T23:42:35.922Z,12.26
2022-11-16T23:45:02.559Z,12.29
2022-11-16T23:47:29.190Z,12.42
2022-11-16T23:49:55.804Z,12.34
2022-11-16T23:52:22.453Z,12.39
2022-11-16T23:54:49.065Z,12.42
2022-11-16T23:57:15.690Z,12.34
2022-11-16T23:59:42.372Z,12.28
